createdAt,value
2018-10-21T00:02:04.410Z,49.00
2018-10-21T00:04:31.505Z,48.90
2018-10-21T00:06:58.652Z,49.00
2018-10-21T00:09:25.792Z,48.90
2018-10-21T00:11:52.888Z,48.90
2018-10-21T00:14:20.012Z,49.00
2018-10-21T00:16:47.123Z,49.00
2018-10-21T00:19:14.249Z,49.00
2018-10-21T00:21:41.384Z,49.00
2018-10-21T00:24:08.514Z,49.00
2018-10-21T00:26:35.623Z,49.00
2018-10-21T00:29:02.706Z,49.00
2018-10-21T00:31:29.838Z,49.00
2018-10-21T00:33:56.933Z,49.00
2018-10-21T00:36:24.048Z,49.10
2018-10-21T00:38:51.137Z,49.00
2018-10-21T00:41:18.268Z,49.10
2018-10-21T00:43:45.382Z,49.10
2018-10-21T00:46:12.472Z,49.10
2018-10-21T00:48:39.571Z,49.10
2018-10-21T00:51:06.702Z,49.10
2018-10-21T00:53:33.790Z,49.10
2018-10-21T00:56:00.910Z,49.10
2018-10-21T00:58:28.008Z,49.10
2018-10-21T01:00:55.121Z,49.10
2018-10-21T01:03:22.203Z,49.10
2018-10-21T01:05:49.278Z,49.10
2018-10-21T01:08:16.382Z,49.10
2018-10-21T01:10:43.495Z,49.10
2018-10-21T01:13:10.598Z,49.10
2018-10-21T01:15:37.715Z,49.10
2018-10-21T01:18:04.836Z,49.10
2018-10-21T01:20:31.971Z,49.10
2018-10-21T01:22:59.095Z,49.10
2018-10-21T01:25:26.192Z,49.10
2018-10-21T01:27:53.303Z,49.10
2018-10-21T01:30:20.394Z,49.10
2018-10-21T01:32:47.495Z,49.20
2018-10-21T01:35:14.603Z,49.10
2018-10-21T01:37:41.743Z,49.10
2018-10-21T01:40:47.769Z,49.20
2018-10-21T01:43:15.980Z,49.10
2018-10-21T01:45:43.076Z,49.20
2018-10-21T01:48:11.292Z,49.20
2018-10-21T01:50:38.403Z,49.20
2018-10-21T01:53:06.591Z,49.20
2018-10-21T01:55:33.675Z,49.20
2018-10-21T01:58:01.120Z,49.20
2018-10-21T02:00:28.757Z,49.20
2018-10-21T02:02:56.369Z,49.20
2018-10-21T02:05:23.697Z,49.20
2018-10-21T02:07:50.811Z,49.20
2018-10-21T02:10:17.965Z,49.20
2018-10-21T02:12:45.056Z,49.20
2018-10-21T02:15:12.720Z,49.20
2018-10-21T02:17:40.033Z,49.20
2018-10-21T02:20:07.844Z,49.20
2018-10-21T02:22:34.952Z,49.20
2018-10-21T02:25:02.229Z,49.30
2018-10-21T02:27:29.326Z,49.20
2018-10-21T02:29:56.431Z,49.20
2018-10-21T02:32:23.565Z,49.20
2018-10-21T02:34:50.695Z,49.20
2018-10-21T02:37:17.826Z,49.20
2018-10-21T02:39:44.958Z,49.20
2018-10-21T02:42:12.073Z,49.90
2018-10-21T02:44:39.212Z,49.20
2018-10-21T02:47:06.319Z,49.30
2018-10-21T02:49:33.414Z,49.20
2018-10-21T02:52:06.924Z,49.30
2018-10-21T02:54:34.552Z,49.20
2018-10-21T02:57:02.171Z,49.20
2018-10-21T02:59:29.270Z,49.20
2018-10-21T03:01:56.366Z,49.40
2018-10-21T03:04:23.735Z,49.30
2018-10-21T03:06:51.115Z,49.30
2018-10-21T03:09:18.213Z,49.30
2018-10-21T03:11:45.356Z,49.30
2018-10-21T03:14:12.503Z,49.40
2018-10-21T03:16:39.611Z,49.30
2018-10-21T03:19:06.691Z,49.30
2018-10-21T03:21:33.765Z,49.30
2018-10-21T03:24:00.895Z,49.30
2018-10-21T03:26:27.973Z,49.30
2018-10-21T03:28:55.116Z,49.30
2018-10-21T03:31:22.219Z,49.30
2018-10-21T03:33:49.840Z,49.30
2018-10-21T03:36:16.732Z,49.30
2018-10-21T03:38:43.847Z,49.30
2018-10-21T03:41:10.942Z,49.30
2018-10-21T03:43:38.044Z,49.30
2018-10-21T03:46:05.223Z,49.40
2018-10-21T03:48:32.291Z,49.30
2018-10-21T03:50:59.388Z,49.40
2018-10-21T03:53:26.492Z,49.40
2018-10-21T03:55:53.579Z,49.30
2018-10-21T03:58:20.654Z,49.30
2018-10-21T04:00:47.722Z,49.30
2018-10-21T04:03:14.820Z,49.30
2018-10-21T04:05:41.921Z,49.40
2018-10-21T04:08:09.040Z,49.40
2018-10-21T04:10:36.138Z,49.40
2018-10-21T04:13:03.446Z,49.40
2018-10-21T04:15:30.592Z,49.40
2018-10-21T04:17:57.719Z,49.30
2018-10-21T04:20:24.855Z,49.40
2018-10-21T04:22:53.954Z,49.40
2018-10-21T04:25:28.743Z,49.40
2018-10-21T04:27:56.642Z,49.40
2018-10-21T04:30:28.715Z,49.40
2018-10-21T04:33:03.311Z,49.40
2018-10-21T04:35:30.600Z,49.40
2018-10-21T04:40:13.430Z,49.40
2018-10-21T04:42:40.444Z,49.40
2018-10-21T04:45:07.963Z,49.40
2018-10-21T04:47:35.059Z,49.50
2018-10-21T04:50:02.164Z,49.40
2018-10-21T04:52:30.174Z,49.50
2018-10-21T04:55:13.213Z,49.50
2018-10-21T04:57:41.362Z,49.50
2018-10-21T05:00:09.698Z,49.50
2018-10-21T05:02:36.795Z,49.50
2018-10-21T05:05:04.583Z,49.40
2018-10-21T05:07:31.723Z,49.50
2018-10-21T05:09:58.787Z,49.40
2018-10-21T05:12:25.905Z,49.50
2018-10-21T05:14:53.009Z,49.50
2018-10-21T05:17:20.104Z,49.50
2018-10-21T05:19:47.191Z,49.50
2018-10-21T05:22:14.359Z,49.50
2018-10-21T05:24:41.359Z,49.50
2018-10-21T05:27:08.587Z,50.10
2018-10-21T05:29:35.699Z,49.50
2018-10-21T05:32:03.052Z,49.50
2018-10-21T05:34:30.158Z,49.50
2018-10-21T05:36:57.247Z,49.50
2018-10-21T05:39:24.311Z,49.50
2018-10-21T05:41:51.427Z,50.10
2018-10-21T05:44:18.516Z,49.40
2018-10-21T05:46:46.864Z,49.50
2018-10-21T05:49:14.047Z,49.40
2018-10-21T05:51:43.300Z,49.50
2018-10-21T05:54:11.408Z,49.50
2018-10-21T05:56:39.882Z,49.50
2018-10-21T05:59:06.987Z,49.50
2018-10-21T06:01:34.073Z,49.50
2018-10-21T06:04:01.261Z,49.50
2018-10-21T06:06:28.285Z,49.50
2018-10-21T06:08:55.360Z,49.50
2018-10-21T06:11:22.459Z,49.50
2018-10-21T06:13:49.551Z,49.50
2018-10-21T06:16:16.678Z,49.50
2018-10-21T06:18:43.716Z,49.50
2018-10-21T06:21:10.850Z,49.50
2018-10-21T06:23:37.964Z,49.50
2018-10-21T06:26:05.470Z,49.50
2018-10-21T06:28:32.562Z,49.50
2018-10-21T06:30:59.660Z,49.50
2018-10-21T06:33:26.768Z,49.50
2018-10-21T06:35:53.915Z,49.50
2018-10-21T06:38:20.999Z,49.50
2018-10-21T06:40:48.099Z,49.50
2018-10-21T06:43:15.199Z,49.50
2018-10-21T06:45:42.356Z,49.50
2018-10-21T06:48:09.387Z,49.50
2018-10-21T06:50:36.500Z,49.60
2018-10-21T06:53:03.615Z,49.60
2018-10-21T06:55:30.714Z,49.50
2018-10-21T06:57:57.805Z,49.60
2018-10-21T07:00:24.901Z,49.60
2018-10-21T07:02:51.994Z,49.60
2018-10-21T07:05:30.547Z,49.60
2018-10-21T07:07:57.623Z,49.60
2018-10-21T07:10:24.722Z,49.60
2018-10-21T07:12:51.846Z,49.60
2018-10-21T07:15:19.479Z,49.60
2018-10-21T07:17:46.505Z,49.60
2018-10-21T07:20:13.651Z,49.60
2018-10-21T07:22:41.775Z,49.60
2018-10-21T07:25:09.322Z,49.60
2018-10-21T07:27:36.466Z,49.70
2018-10-21T07:30:04.175Z,49.60
2018-10-21T07:32:31.290Z,49.70
2018-10-21T07:34:58.380Z,49.60
2018-10-21T07:37:25.480Z,49.60
2018-10-21T07:39:52.580Z,49.70
2018-10-21T07:42:19.687Z,49.60
2018-10-21T07:44:46.810Z,49.80
2018-10-21T07:47:13.899Z,49.70
2018-10-21T07:49:40.974Z,49.70
2018-10-21T07:52:08.089Z,49.70
2018-10-21T07:54:35.435Z,49.80
2018-10-21T07:57:02.698Z,49.70
2018-10-21T07:59:29.795Z,49.80
2018-10-21T08:01:56.890Z,49.70
2018-10-21T08:04:23.987Z,49.80
2018-10-21T08:07:02.688Z,49.80
2018-10-21T08:09:29.794Z,49.80
2018-10-21T08:11:56.907Z,49.80
2018-10-21T08:14:23.982Z,49.80
2018-10-21T08:16:51.112Z,49.80
2018-10-21T08:19:18.216Z,49.80
2018-10-21T08:21:45.332Z,49.80
2018-10-21T08:24:12.415Z,49.80
2018-10-21T08:26:39.499Z,50.40
2018-10-21T08:29:06.611Z,49.90
2018-10-21T08:31:33.724Z,49.80
2018-10-21T08:34:00.827Z,49.90
2018-10-21T08:36:27.940Z,49.80
2018-10-21T08:38:55.041Z,49.90
2018-10-21T08:41:22.151Z,49.90
2018-10-21T08:43:49.255Z,49.90
2018-10-21T08:46:16.393Z,49.90
2018-10-21T08:48:43.463Z,49.90
2018-10-21T08:51:10.555Z,49.90
2018-10-21T08:53:37.671Z,49.90
2018-10-21T08:56:04.981Z,50.50
2018-10-21T08:58:31.928Z,50.00
2018-10-21T09:00:59.082Z,50.00
2018-10-21T09:03:26.332Z,50.00
2018-10-21T09:05:53.431Z,49.90
2018-10-21T09:08:20.540Z,50.00
2018-10-21T09:10:47.744Z,49.90
2018-10-21T09:13:14.837Z,50.00
2018-10-21T09:15:41.863Z,50.00
2018-10-21T09:18:08.971Z,50.00
2018-10-21T09:20:36.083Z,50.00
2018-10-21T09:23:03.267Z,50.00
2018-10-21T09:25:30.380Z,50.00
2018-10-21T09:27:57.526Z,50.00
2018-10-21T09:30:24.583Z,50.00
2018-10-21T09:32:51.699Z,50.00
2018-10-21T09:35:19.074Z,50.00
2018-10-21T09:37:46.185Z,50.00
2018-10-21T09:40:14.820Z,50.00
2018-10-21T09:42:42.170Z,50.00
2018-10-21T09:45:11.071Z,50.00
2018-10-21T09:47:38.166Z,50.00
2018-10-21T09:50:05.351Z,50.00
2018-10-21T09:52:32.459Z,50.00
2018-10-21T09:54:59.550Z,50.00
2018-10-21T09:57:26.651Z,50.00
2018-10-21T09:59:53.734Z,50.00
2018-10-21T10:02:26.657Z,50.00
2018-10-21T10:04:53.763Z,50.10
2018-10-21T10:07:20.844Z,50.10
2018-10-21T10:09:47.924Z,50.00
2018-10-21T10:12:14.992Z,50.00
2018-10-21T10:14:42.100Z,50.10
2018-10-21T10:17:09.189Z,50.00
2018-10-21T10:19:36.298Z,50.00
2018-10-21T10:22:03.443Z,50.00
2018-10-21T10:24:30.513Z,50.00
2018-10-21T10:26:57.598Z,50.00
2018-10-21T10:29:24.710Z,50.00
2018-10-21T10:31:51.814Z,50.00
2018-10-21T10:34:18.991Z,50.10
2018-10-21T10:36:46.044Z,50.00
2018-10-21T10:39:13.145Z,50.00
2018-10-21T10:41:40.408Z,50.10
2018-10-21T10:44:07.520Z,50.00
2018-10-21T10:46:34.628Z,50.00
2018-10-21T10:49:01.776Z,50.00
2018-10-21T10:51:28.851Z,50.00
2018-10-21T10:53:55.931Z,50.00
2018-10-21T10:56:23.018Z,50.00
2018-10-21T10:58:50.110Z,50.70
2018-10-21T11:01:17.321Z,50.00
2018-10-21T11:03:44.390Z,50.00
2018-10-21T11:06:11.516Z,50.00
2018-10-21T11:08:38.619Z,50.00
2018-10-21T11:11:05.820Z,50.00
2018-10-21T11:13:32.925Z,50.00
2018-10-21T11:16:00.072Z,50.00
2018-10-21T11:18:27.135Z,50.00
2018-10-21T11:20:54.227Z,50.00
2018-10-21T11:23:21.424Z,50.00
2018-10-21T11:25:48.512Z,49.90
2018-10-21T11:28:15.689Z,50.00
2018-10-21T11:30:42.721Z,49.90
2018-10-21T11:33:09.818Z,49.90
2018-10-21T11:35:36.911Z,49.90
2018-10-21T11:38:04.282Z,49.90
2018-10-21T11:40:31.468Z,49.90
2018-10-21T11:42:58.616Z,50.00
2018-10-21T11:45:25.763Z,49.90
2018-10-21T11:47:52.835Z,49.90
2018-10-21T11:50:19.936Z,50.00
2018-10-21T11:52:47.098Z,49.90
2018-10-21T11:55:14.215Z,50.50
2018-10-21T11:57:41.276Z,49.90
2018-10-21T12:00:09.003Z,49.90
2018-10-21T12:02:36.120Z,49.80
2018-10-21T12:05:03.357Z,49.90
2018-10-21T12:07:30.451Z,49.90
2018-10-21T12:09:57.564Z,49.90
2018-10-21T12:12:24.647Z,49.80
2018-10-21T12:14:51.758Z,49.80
2018-10-21T12:17:18.872Z,49.80
2018-10-21T12:19:45.983Z,49.80
2018-10-21T12:22:13.176Z,49.80
2018-10-21T12:24:40.211Z,49.90
2018-10-21T12:27:07.451Z,49.80
2018-10-21T12:29:34.544Z,49.80
2018-10-21T12:32:01.748Z,49.80
2018-10-21T12:34:28.860Z,49.80
2018-10-21T12:36:55.981Z,49.70
2018-10-21T12:39:23.055Z,49.70
2018-10-21T12:41:50.176Z,49.70
2018-10-21T12:44:17.255Z,49.70
2018-10-21T12:46:44.360Z,49.70
2018-10-21T12:49:11.533Z,49.70
2018-10-21T12:51:38.560Z,50.40
2018-10-21T12:54:05.856Z,49.70
2018-10-21T12:56:32.911Z,49.70
2018-10-21T12:58:59.992Z,49.70
2018-10-21T13:01:27.076Z,49.70
2018-10-21T13:03:54.192Z,49.70
2018-10-21T13:06:21.279Z,49.70
2018-10-21T13:08:48.371Z,49.70
2018-10-21T13:11:15.471Z,49.60
2018-10-21T13:13:42.575Z,49.60
2018-10-21T13:16:09.748Z,49.70
2018-10-21T13:18:36.798Z,49.60
2018-10-21T13:21:04.150Z,49.60
2018-10-21T13:23:31.311Z,49.60
2018-10-21T13:25:58.414Z,49.60
2018-10-21T13:28:25.681Z,49.60
2018-10-21T13:30:52.666Z,49.50
2018-10-21T13:33:19.795Z,49.60
2018-10-21T13:35:46.888Z,49.50
2018-10-21T13:38:13.994Z,49.60
2018-10-21T13:40:41.483Z,49.60
2018-10-21T13:43:08.602Z,49.60
2018-10-21T13:45:35.637Z,49.60
2018-10-21T13:48:02.771Z,49.60
2018-10-21T13:50:29.900Z,49.60
2018-10-21T13:52:57.095Z,49.60
2018-10-21T13:55:24.094Z,49.50
2018-10-21T13:57:51.333Z,49.50
2018-10-21T14:00:18.480Z,49.60
2018-10-21T14:02:45.575Z,49.60
2018-10-21T14:05:12.681Z,50.20
2018-10-21T14:07:39.787Z,49.50
2018-10-21T14:10:07.243Z,49.50
2018-10-21T14:12:34.326Z,49.50
2018-10-21T14:15:01.523Z,49.50
2018-10-21T14:17:28.552Z,49.60
2018-10-21T14:19:55.655Z,49.50
2018-10-21T14:22:22.787Z,49.50
2018-10-21T14:24:49.932Z,49.50
2018-10-21T14:27:17.011Z,49.50
2018-10-21T14:29:44.109Z,49.50
2018-10-21T14:32:11.203Z,49.50
2018-10-21T14:34:38.313Z,49.50
2018-10-21T14:37:05.404Z,49.50
2018-10-21T14:39:32.503Z,49.50
2018-10-21T14:41:59.631Z,49.50
2018-10-21T14:44:26.712Z,49.50
2018-10-21T14:46:53.843Z,49.50
2018-10-21T14:49:20.942Z,49.50
2018-10-21T14:51:48.036Z,49.50
2018-10-21T14:54:15.210Z,49.50
2018-10-21T14:56:42.244Z,49.50
2018-10-21T14:59:09.374Z,49.40
2018-10-21T15:01:36.636Z,49.50
2018-10-21T15:04:03.923Z,49.40
2018-10-21T15:06:31.012Z,49.40
2018-10-21T15:08:58.151Z,49.50
2018-10-21T15:11:25.282Z,49.50
2018-10-21T15:13:52.606Z,49.50
2018-10-21T15:16:19.739Z,49.50
2018-10-21T15:18:46.827Z,49.40
2018-10-21T15:21:13.912Z,49.40
2018-10-21T15:23:40.994Z,49.40
2018-10-21T15:26:08.124Z,49.40
2018-10-21T15:28:35.199Z,49.50
2018-10-21T15:31:02.283Z,49.40
2018-10-21T15:33:29.379Z,49.50
2018-10-21T15:35:56.475Z,49.40
2018-10-21T15:38:23.598Z,49.50
2018-10-21T15:40:50.720Z,49.40
2018-10-21T15:43:17.827Z,49.40
2018-10-21T15:45:44.962Z,49.40
2018-10-21T15:48:12.052Z,49.40
2018-10-21T15:50:39.239Z,49.40
2018-10-21T15:53:06.285Z,49.30
2018-10-21T15:55:33.402Z,49.40
2018-10-21T15:58:00.516Z,49.40
2018-10-21T16:00:27.629Z,49.40
2018-10-21T16:02:54.784Z,49.40
2018-10-21T16:05:21.854Z,49.40
2018-10-21T16:07:48.975Z,49.40
2018-10-21T16:10:16.168Z,49.30
2018-10-21T16:12:43.135Z,49.40
2018-10-21T16:15:12.578Z,49.40
2018-10-21T16:17:39.669Z,49.40
2018-10-21T16:20:07.104Z,49.40
2018-10-21T16:22:35.682Z,49.40
2018-10-21T16:25:02.779Z,49.40
2018-10-21T16:27:29.857Z,49.50
2018-10-21T16:29:56.999Z,49.40
2018-10-21T16:32:24.171Z,49.50
2018-10-21T16:34:51.226Z,49.40
2018-10-21T16:37:18.352Z,49.40
2018-10-21T16:39:45.476Z,49.50
2018-10-21T16:42:12.576Z,49.40
2018-10-21T16:44:39.699Z,49.50
2018-10-21T16:47:06.780Z,49.50
2018-10-21T16:49:33.870Z,49.50
2018-10-21T16:52:00.950Z,49.50
2018-10-21T16:54:28.057Z,49.40
2018-10-21T16:56:55.150Z,49.40
2018-10-21T16:59:22.327Z,49.50
2018-10-21T17:01:49.412Z,49.40
2018-10-21T17:04:16.511Z,49.40
2018-10-21T17:06:43.607Z,49.50
2018-10-21T17:09:12.737Z,49.50
2018-10-21T17:11:39.787Z,49.50
2018-10-21T17:14:06.911Z,49.40
2018-10-21T17:16:34.010Z,49.50
2018-10-21T17:19:01.492Z,49.50
2018-10-21T17:21:28.574Z,49.40
2018-10-21T17:23:55.661Z,49.40
2018-10-21T17:26:22.782Z,49.50
2018-10-21T17:28:49.887Z,49.50
2018-10-21T17:31:17.094Z,49.50
2018-10-21T17:33:44.131Z,49.50
2018-10-21T17:36:11.223Z,49.50
2018-10-21T17:38:38.324Z,49.40
2018-10-21T17:41:05.451Z,49.50
2018-10-21T17:43:32.545Z,49.50
2018-10-21T17:45:59.663Z,49.40
2018-10-21T17:48:26.787Z,49.50
2018-10-21T17:50:53.879Z,49.40
2018-10-21T17:53:20.976Z,49.40
2018-10-21T17:55:48.077Z,49.40
2018-10-21T17:58:15.214Z,49.40
2018-10-21T18:00:42.290Z,49.40
2018-10-21T18:03:09.394Z,49.50
2018-10-21T18:05:36.543Z,49.50
2018-10-21T18:08:03.633Z,49.40
2018-10-21T18:10:30.716Z,49.40
2018-10-21T18:12:57.891Z,49.40
2018-10-21T18:15:24.957Z,49.40
2018-10-21T18:17:52.518Z,49.40
2018-10-21T18:20:19.615Z,49.50
2018-10-21T18:22:46.721Z,49.40
2018-10-21T18:25:13.954Z,49.40
2018-10-21T18:27:41.306Z,49.40
2018-10-21T18:30:09.375Z,49.40
2018-10-21T18:32:36.483Z,49.40
2018-10-21T18:35:04.259Z,49.40
2018-10-21T18:37:31.363Z,49.40
2018-10-21T18:39:58.566Z,49.40
2018-10-21T18:42:25.665Z,49.40
2018-10-21T18:44:52.764Z,49.40
2018-10-21T18:47:19.903Z,49.50
2018-10-21T18:49:46.992Z,49.40
2018-10-21T18:52:14.493Z,49.50
2018-10-21T18:54:41.567Z,49.40
2018-10-21T18:57:08.711Z,49.50
2018-10-21T18:59:35.812Z,49.40
2018-10-21T19:02:02.932Z,49.50
2018-10-21T19:04:30.036Z,49.40
2018-10-21T19:06:57.157Z,49.50
2018-10-21T19:09:24.235Z,49.50
2018-10-21T19:11:51.311Z,49.40
2018-10-21T19:14:18.410Z,49.40
2018-10-21T19:16:45.503Z,49.40
2018-10-21T19:19:12.617Z,49.40
2018-10-21T19:21:39.688Z,49.40
2018-10-21T19:24:06.807Z,49.40
2018-10-21T19:26:33.939Z,49.40
2018-10-21T19:29:01.053Z,49.40
2018-10-21T19:31:28.163Z,49.30
2018-10-21T19:33:55.359Z,49.30
2018-10-21T19:36:22.351Z,49.30
2018-10-21T19:38:49.451Z,49.30
2018-10-21T19:41:16.561Z,49.40
2018-10-21T19:43:43.789Z,49.40
2018-10-21T19:46:10.985Z,49.30
2018-10-21T19:48:38.020Z,49.40
2018-10-21T19:51:05.135Z,49.40
2018-10-21T19:53:32.291Z,49.30
2018-10-21T19:55:59.368Z,49.30
2018-10-21T19:58:26.526Z,49.30
2018-10-21T20:00:53.582Z,49.40
2018-10-21T20:03:20.696Z,49.30
2018-10-21T20:05:47.979Z,49.30
2018-10-21T20:08:15.071Z,49.30
2018-10-21T20:10:42.600Z,49.30
2018-10-21T20:13:09.739Z,49.40
2018-10-21T20:15:36.803Z,49.30
2018-10-21T20:18:04.208Z,49.40
2018-10-21T20:20:31.942Z,49.30
2018-10-21T20:22:59.068Z,49.40
2018-10-21T20:25:26.154Z,49.30
2018-10-21T20:27:53.271Z,49.30
2018-10-21T20:30:20.409Z,49.30
2018-10-21T20:32:47.573Z,49.30
2018-10-21T20:35:14.639Z,50.00
2018-10-21T20:37:41.740Z,49.40
2018-10-21T20:40:09.585Z,49.30
2018-10-21T20:42:36.639Z,49.30
2018-10-21T20:45:04.078Z,49.30
2018-10-21T20:47:31.171Z,49.30
2018-10-21T20:49:58.258Z,49.30
2018-10-21T20:52:25.331Z,49.30
2018-10-21T20:54:52.527Z,49.30
2018-10-21T20:57:19.619Z,49.30
2018-10-21T20:59:47.139Z,49.30
2018-10-21T21:02:15.003Z,49.30
2018-10-21T21:04:42.095Z,49.30
2018-10-21T21:07:09.741Z,49.30
2018-10-21T21:09:38.413Z,49.30
2018-10-21T21:12:05.580Z,49.30
2018-10-21T21:14:33.003Z,49.30
2018-10-21T21:17:00.179Z,49.30
2018-10-21T21:19:27.271Z,49.40
2018-10-21T21:21:54.422Z,49.30
2018-10-21T21:24:21.528Z,49.30
2018-10-21T21:26:48.893Z,49.30
2018-10-21T21:29:16.228Z,49.30
2018-10-21T21:31:44.140Z,49.40
2018-10-21T21:34:11.345Z,49.30
2018-10-21T21:36:38.355Z,49.30
2018-10-21T21:39:07.812Z,49.30
2018-10-21T21:41:34.939Z,49.30
2018-10-21T21:44:02.292Z,49.30
2018-10-21T21:46:29.637Z,49.30
2018-10-21T21:48:56.735Z,49.30
2018-10-21T21:51:23.931Z,49.30
2018-10-21T21:53:51.049Z,49.30
2018-10-21T21:56:18.389Z,49.30
2018-10-21T21:58:46.038Z,49.30
2018-10-21T22:01:13.180Z,49.30
2018-10-21T22:03:40.337Z,49.30
2018-10-21T22:06:07.633Z,49.30
2018-10-21T22:08:34.751Z,49.30
2018-10-21T22:11:01.855Z,49.20
2018-10-21T22:13:28.971Z,49.30
2018-10-21T22:15:56.086Z,49.30
2018-10-21T22:18:23.203Z,49.30
2018-10-21T22:20:50.317Z,49.30
2018-10-21T22:23:17.420Z,49.30
2018-10-21T22:25:44.661Z,49.30
2018-10-21T22:28:11.804Z,49.30
2018-10-21T22:30:38.895Z,49.20
2018-10-21T22:33:06.057Z,49.30
2018-10-21T22:35:33.186Z,49.20
2018-10-21T22:38:00.375Z,49.20
2018-10-21T22:40:27.526Z,49.20
2018-10-21T22:42:54.633Z,49.20
2018-10-21T22:45:21.735Z,49.20
2018-10-21T22:47:48.814Z,49.20
2018-10-21T22:50:15.922Z,49.20
2018-10-21T22:52:43.184Z,49.20
2018-10-21T22:55:10.435Z,49.30
2018-10-21T22:57:37.555Z,49.30
2018-10-21T23:00:06.705Z,49.30
2018-10-21T23:02:33.738Z,49.20
2018-10-21T23:05:00.849Z,49.30
2018-10-21T23:07:27.930Z,49.30
2018-10-21T23:09:55.089Z,49.20
2018-10-21T23:12:22.158Z,49.20
2018-10-21T23:14:49.222Z,49.30
2018-10-21T23:17:16.318Z,49.30
2018-10-21T23:19:44.711Z,49.20
2018-10-21T23:22:11.860Z,49.30
2018-10-21T23:24:39.375Z,49.20
2018-10-21T23:27:06.997Z,49.20
2018-10-21T23:29:34.127Z,49.20
2018-10-21T23:32:01.247Z,49.20
2018-10-21T23:34:28.353Z,49.30
2018-10-21T23:36:55.786Z,49.20
2018-10-21T23:39:22.880Z,49.20
2018-10-21T23:41:49.989Z,49.20
2018-10-21T23:44:17.239Z,49.20
2018-10-21T23:46:44.326Z,49.20
2018-10-21T23:49:11.443Z,49.20
2018-10-21T23:51:38.673Z,49.20
2018-10-21T23:54:05.796Z,49.20
2018-10-21T23:56:32.984Z,49.20
2018-10-21T23:59:00.073Z,49.20
